Time;durP1;ratioP1;P1;durP2;ratioP2;P2;SDS_P1;SDS_P2;PMS_P1;PMS_P2;Temp;Humidity;BMP_temperature;BMP_pressure;BME280_temperature;BME280_humidity;BME280_pressure;Samples;Min_cycle;Max_cycle;Signal;HPM_P1;HPM_P2
2022/10/03 00:02:09;;;;;;;0.30;0.30;;;;;;;14.25;100.00;97345.56;4906838;29;20289;-65
2022/10/03 00:04:47;;;;;;;0.40;0.40;;;;;;;14.19;100.00;97339.03;4907038;29;20208;-64
2022/10/03 00:07:26;;;;;;;0.10;0.10;;;;;;;14.13;100.00;97344.13;4906957;29;20219;-65
2022/10/03 00:10:02;;;;;;;1.50;0.20;;;;;;;14.06;100.00;97348.34;4905452;29;20224;-65
2022/10/03 00:12:47;;;;;;;0.30;0.10;;;;;;;14.08;100.00;97354.34;4905633;29;20715;-65
2022/10/03 00:15:20;;;;;;;0.23;0.10;;;;;;;14.06;100.00;97348.34;4905799;29;20208;-65
2022/10/03 00:17:53;;;;;;;0.20;0.10;;;;;;;14.04;100.00;97355.63;4906131;29;20259;-66
2022/10/03 00:20:35;;;;;;;0.10;0.10;;;;;;;14.00;100.00;97352.41;4905928;29;20615;-65
2022/10/03 00:23:04;;;;;;;0.43;0.13;;;;;;;14.01;100.00;97353.25;4905338;29;20958;-66
2022/10/03 00:25:38;;;;;;;1.93;0.30;;;;;;;14.00;100.00;97348.91;4905518;29;20212;-67
2022/10/03 00:28:13;;;;;;;0.73;0.10;;;;;;;14.04;100.00;97345.00;4905663;29;20299;-64
2022/10/03 00:30:52;;;;;;;0.00;0.00;;;;;;;13.95;100.00;97349.38;4905612;29;20223;-65
2022/10/03 00:33:26;;;;;;;0.53;0.20;;;;;;;13.93;100.00;97354.00;4905153;29;20303;-65
2022/10/03 00:36:03;;;;;;;0.10;0.10;;;;;;;13.93;100.00;97360.16;4905601;29;20561;-65
2022/10/03 00:38:55;;;;;;;1.70;0.10;;;;;;;13.93;100.00;97360.16;4905239;29;20208;-66
2022/10/03 00:41:46;;;;;;;0.23;0.23;;;;;;;13.87;100.00;97366.06;4902597;29;20689;-64
2022/10/03 00:44:38;;;;;;;0.77;0.10;;;;;;;13.86;100.00;97369.69;4905581;29;20200;-64
2022/10/03 00:47:35;;;;;;;0.10;0.10;;;;;;;13.88;100.00;97373.06;4905019;29;20200;-63
2022/10/03 00:50:26;;;;;;;0.33;0.13;;;;;;;13.88;100.00;97378.38;4905188;29;20229;-65
2022/10/03 00:53:09;;;;;;;1.23;0.10;;;;;;;13.85;100.00;97370.66;4902902;29;20712;-65
2022/10/03 00:55:49;;;;;;;0.20;0.10;;;;;;;13.85;100.00;97373.31;4905343;29;20200;-63
2022/10/03 00:58:48;;;;;;;0.00;0.00;;;;;;;13.86;100.00;97374.16;4905660;29;20211;-64
2022/10/03 01:01:24;;;;;;;0.00;0.00;;;;;;;13.86;100.00;97369.69;4886230;29;20216;-65
2022/10/03 01:03:58;;;;;;;0.00;0.00;;;;;;;13.83;100.00;97372.66;4905032;29;20235;-65
2022/10/03 01:06:34;;;;;;;0.13;0.10;;;;;;;13.83;100.00;97375.31;4906509;29;21473;-66
2022/10/03 01:09:20;;;;;;;0.67;0.13;;;;;;;13.82;100.00;97384.25;4908878;29;20200;-63
2022/10/03 01:11:59;;;;;;;0.10;0.10;;;;;;;13.79;100.00;97379.22;4908983;29;20204;-64
2022/10/03 01:14:45;;;;;;;0.00;0.00;;;;;;;13.75;100.00;97375.19;4909108;29;20204;-64
2022/10/03 01:17:16;;;;;;;0.00;0.00;;;;;;;13.74;100.00;97370.88;4904945;29;20235;-65
2022/10/03 01:20:03;;;;;;;1.50;0.20;;;;;;;13.73;100.00;97369.19;4909039;29;20659;-66
2022/10/03 01:22:48;;;;;;;0.20;0.10;;;;;;;13.71;100.00;97379.09;4908495;29;20220;-64
2022/10/03 01:25:19;;;;;;;1.20;0.10;;;;;;;13.71;100.00;97381.78;4908576;29;20214;-65
2022/10/03 01:30:41;;;;;;;0.07;0.07;;;;;;;13.73;100.00;97382.47;4908808;29;20700;-63
2022/10/03 01:33:10;;;;;;;0.87;0.30;;;;;;;13.72;100.00;97386.13;4910858;29;20291;-64
2022/10/03 01:35:47;;;;;;;0.00;0.00;;;;;;;13.69;100.00;97389.06;4911600;29;20247;-65
2022/10/03 01:38:18;;;;;;;0.20;0.10;;;;;;;13.67;100.00;97396.34;4913883;29;20244;-65
2022/10/03 01:40:51;;;;;;;0.30;0.10;;;;;;;13.67;100.00;97388.38;4909290;29;20287;-64
2022/10/03 01:43:20;;;;;;;0.00;0.00;;;;;;;13.70;100.00;97395.22;4908735;29;20604;-65
2022/10/03 01:46:04;;;;;;;0.60;0.10;;;;;;;13.64;100.00;97396.63;4907489;29;20239;-65
2022/10/03 01:48:36;;;;;;;1.20;0.10;;;;;;;13.67;100.00;97406.16;4908766;29;20238;-66
2022/10/03 01:51:10;;;;;;;0.17;0.03;;;;;;;13.65;100.00;97411.59;4908488;29;20311;-65
2022/10/03 01:53:48;;;;;;;0.80;0.27;;;;;;;13.65;100.00;97406.28;4908865;29;20201;-64
2022/10/03 01:56:19;;;;;;;0.10;0.10;;;;;;;13.62;100.00;97408.38;4907624;29;20749;-64
2022/10/03 01:58:55;;;;;;;0.10;0.10;;;;;;;13.64;100.00;97412.56;4907910;29;20208;-65
2022/10/03 02:01:28;;;;;;;0.30;0.10;;;;;;;13.64;100.00;97417.06;4907671;29;20200;-65
2022/10/03 02:04:01;;;;;;;1.50;0.20;;;;;;;13.62;100.00;97427.84;4907678;29;20606;-65
2022/10/03 02:06:34;;;;;;;0.10;0.10;;;;;;;13.60;100.00;97426.31;4907830;29;20201;-65
2022/10/03 02:09:06;;;;;;;0.10;0.10;;;;;;;13.61;100.00;97423.47;4907634;29;20288;-66
2022/10/03 02:11:37;;;;;;;0.20;0.20;;;;;;;13.65;100.00;97413.41;4907732;29;20251;-66
2022/10/03 02:14:20;;;;;;;1.93;0.17;;;;;;;13.64;100.00;97409.91;4907675;29;20247;-65
2022/10/03 02:16:57;;;;;;;0.30;0.30;;;;;;;13.63;100.00;97418.88;4907721;29;20637;-66
2022/10/03 02:19:26;;;;;;;0.30;0.20;;;;;;;13.65;100.00;97418.72;4907334;29;20267;-65
2022/10/03 02:21:55;;;;;;;0.20;0.20;;;;;;;13.64;100.00;97423.19;4907448;29;20211;-65
2022/10/03 02:24:38;;;;;;;0.20;0.20;;;;;;;13.67;100.00;97433.56;4907023;29;20298;-65
2022/10/03 02:27:23;;;;;;;0.17;0.17;;;;;;;13.64;100.00;97439.16;4908463;29;20216;-66
2022/10/03 02:30:08;;;;;;;0.20;0.20;;;;;;;13.64;100.00;97441.81;4906955;29;20288;-64
2022/10/03 02:33:12;;;;;;;0.10;0.10;;;;;;;13.62;100.00;97440.28;4904567;29;20299;-64
2022/10/03 02:36:01;;;;;;;0.27;0.27;;;;;;;13.57;100.00;97442.53;4851823;29;20235;-66
2022/10/03 02:38:53;;;;;;;0.97;0.50;;;;;;;13.58;100.00;97433.56;4907005;29;20213;-67
2022/10/03 02:41:51;;;;;;;0.30;0.30;;;;;;;13.49;100.00;97434.44;4906987;29;20283;-65
2022/10/03 02:44:45;;;;;;;0.20;0.20;;;;;;;13.50;100.00;97436.13;4906340;29;20665;-65
2022/10/03 02:47:29;;;;;;;0.37;0.37;;;;;;;13.43;100.00;97438.47;4907151;29;20251;-66
2022/10/03 02:50:34;;;;;;;0.30;0.30;;;;;;;13.48;100.00;97432.75;4907725;29;20718;-66
2022/10/03 02:53:39;;;;;;;1.30;0.20;;;;;;;13.42;100.00;97434.16;4882360;29;20295;-64
2022/10/03 02:56:45;;;;;;;0.20;0.20;;;;;;;13.41;100.00;97437.78;4906983;29;20236;-65
2022/10/03 02:59:32;;;;;;;0.20;0.20;;;;;;;13.42;100.00;97432.34;4907751;29;20200;-66
2022/10/03 03:02:12;;;;;;;0.33;0.33;;;;;;;13.44;100.00;97437.50;4906087;29;20192;-65
2022/10/03 03:05:05;;;;;;;0.30;0.30;;;;;;;13.42;100.00;97435.00;4907606;29;20232;-65
2022/10/03 03:08:08;;;;;;;0.37;0.37;;;;;;;13.46;100.00;97446.19;4908130;29;20295;-66
2022/10/03 03:10:55;;;;;;;0.30;0.30;;;;;;;13.45;100.00;97442.69;4907900;29;20560;-64
2022/10/03 03:13:43;;;;;;;0.40;0.23;;;;;;;13.43;100.00;97435.81;4906674;29;20232;-66
2022/10/03 03:16:48;;;;;;;3.20;0.87;;;;;;;13.39;100.00;97437.91;4869008;29;20212;-64
2022/10/03 03:19:26;;;;;;;0.40;0.40;;;;;;;13.41;100.00;97437.78;4838935;29;20596;-65
2022/10/03 03:21:58;;;;;;;1.33;0.40;;;;;;;13.41;100.00;97435.13;4899994;29;20232;-64
2022/10/03 03:24:45;;;;;;;0.30;0.30;;;;;;;13.34;100.00;97437.53;4906378;29;20245;-67
2022/10/03 03:27:22;;;;;;;0.63;0.30;;;;;;;13.37;100.00;97436.38;4906631;29;20279;-66
2022/10/03 03:29:57;;;;;;;1.77;0.50;;;;;;;13.36;100.00;97432.88;4905141;29;20322;-65
2022/10/03 03:32:32;;;;;;;1.47;0.50;;;;;;;13.36;100.00;97432.03;4905752;29;20296;-65
2022/10/03 03:35:08;;;;;;;0.20;0.20;;;;;;;13.36;100.00;97435.53;4905790;29;20200;-64
2022/10/03 03:37:43;;;;;;;1.03;0.30;;;;;;;13.38;100.00;97438.06;4906304;29;20637;-66
2022/10/03 03:40:20;;;;;;;0.33;0.33;;;;;;;13.37;100.00;97441.69;4906427;29;20303;-66
2022/10/03 03:43:09;;;;;;;0.30;0.20;;;;;;;13.38;100.00;97438.06;4906360;29;20310;-66
2022/10/03 03:45:45;;;;;;;0.30;0.30;;;;;;;13.39;100.00;97437.09;4906092;29;20281;-65
2022/10/03 03:48:30;;;;;;;0.30;0.30;;;;;;;13.38;100.00;97441.56;4906243;29;20303;-66
2022/10/03 03:51:11;;;;;;;1.90;0.60;;;;;;;13.35;100.00;97428.56;4906391;29;20225;-66
2022/10/03 03:53:53;;;;;;;0.50;0.50;;;;;;;13.36;100.00;97435.53;4906488;29;20199;-66
2022/10/03 03:56:47;;;;;;;0.57;0.57;;;;;;;13.36;100.00;97432.03;4906761;29;20331;-64
2022/10/03 03:59:27;;;;;;;1.17;0.43;;;;;;;13.36;100.00;97440.00;4890673;29;20308;-66
2022/10/03 04:02:06;;;;;;;0.30;0.30;;;;;;;13.35;100.00;97438.38;4917586;29;20193;-70
2022/10/03 04:04:45;;;;;;;0.60;0.40;;;;;;;13.37;100.00;97436.38;4924031;29;20199;-67
2022/10/03 04:07:21;;;;;;;0.67;0.40;;;;;;;13.35;100.00;97435.72;4914308;29;20196;-65
2022/10/03 04:10:04;;;;;;;0.40;0.40;;;;;;;13.36;100.00;97437.34;4911068;29;20243;-66
2022/10/03 04:12:47;;;;;;;0.50;0.50;;;;;;;13.39;100.00;97439.75;4909958;29;20625;-67
2022/10/03 04:15:36;;;;;;;1.70;0.50;;;;;;;13.37;100.00;97426.59;4914525;29;20228;-68
2022/10/03 04:21:34;;;;;;;1.30;1.30;;;;;;;13.37;100.00;97415.13;4896926;29;20227;-65
2022/10/03 04:24:18;;;;;;;1.00;1.00;;;;;;;13.29;100.00;97415.00;4906695;29;20267;-66
2022/10/03 04:26:58;;;;;;;0.90;0.90;;;;;;;13.27;100.00;97414.31;4905879;29;20208;-64
2022/10/03 04:29:46;;;;;;;1.90;0.90;;;;;;;13.26;100.00;97416.13;4905717;29;20271;-66
2022/10/03 04:32:38;;;;;;;0.90;0.90;;;;;;;13.24;100.00;97414.59;4906048;29;20212;-66
2022/10/03 04:35:24;;;;;;;1.67;1.30;;;;;;;13.21;100.00;97415.72;4906143;29;20216;-64
2022/10/03 04:37:56;;;;;;;1.23;1.03;;;;;;;13.18;100.00;97409.84;4905315;29;20210;-66
2022/10/03 04:40:27;;;;;;;2.67;1.03;;;;;;;13.18;100.00;97415.97;4906130;29;20204;-64
2022/10/03 04:43:03;;;;;;;1.97;1.13;;;;;;;13.18;100.00;97415.16;4908987;29;20200;-66
2022/10/03 04:45:40;;;;;;;1.07;1.03;;;;;;;13.15;100.00;97415.41;4909503;29;20254;-65
2022/10/03 04:48:15;;;;;;;1.37;1.27;;;;;;;13.07;100.00;97413.47;4913904;29;20231;-66
2022/10/03 04:50:46;;;;;;;2.63;1.27;;;;;;;13.08;100.00;97409.81;4913750;29;20208;-65
2022/10/03 04:53:24;;;;;;;1.57;1.47;;;;;;;13.06;100.00;97406.47;4913684;29;20309;-65
2022/10/03 04:55:55;;;;;;;1.40;1.30;;;;;;;13.07;100.00;97417.94;4914426;29;20292;-64
2022/10/03 04:58:30;;;;;;;1.97;1.30;;;;;;;13.05;100.00;97411.91;4911908;29;20305;-66
2022/10/03 05:01:05;;;;;;;1.40;1.30;;;;;;;13.07;100.00;97410.81;4913094;29;20614;-64
2022/10/03 05:03:42;;;;;;;2.00;1.50;;;;;;;12.99;100.00;97413.31;4908564;29;20210;-66
2022/10/03 05:06:23;;;;;;;2.37;1.57;;;;;;;12.91;100.00;97418.47;4909718;29;20659;-66
2022/10/03 05:08:57;;;;;;;1.40;1.30;;;;;;;12.86;100.00;97418.88;4924419;29;20203;-66
2022/10/03 05:11:36;;;;;;;1.70;1.50;;;;;;;12.86;100.00;97426.84;4919854;29;20223;-66
2022/10/03 05:14:10;;;;;;;1.53;1.43;;;;;;;12.90;100.00;97425.59;4908463;29;20634;-64
2022/10/03 05:16:41;;;;;;;1.70;1.60;;;;;;;12.88;100.00;97429.38;4908820;29;20205;-66
2022/10/03 05:19:46;;;;;;;2.20;1.50;;;;;;;12.83;100.00;97435.06;4908723;29;20247;-66
2022/10/03 05:22:22;;;;;;;4.07;1.60;;;;;;;12.82;100.00;97435.22;4909145;29;20506;-67
2022/10/03 05:24:56;;;;;;;1.90;1.80;;;;;;;12.81;100.00;97434.38;4908397;29;20204;-67
2022/10/03 05:27:28;;;;;;;2.10;2.00;;;;;;;12.85;100.00;97435.78;4908646;29;20225;-67
2022/10/03 05:29:59;;;;;;;2.20;2.10;;;;;;;12.82;100.00;97438.69;4908281;29;20287;-66
2022/10/03 05:32:32;;;;;;;2.00;1.80;;;;;;;12.83;100.00;97453.66;4908193;29;20669;-66
2022/10/03 05:35:15;;;;;;;2.50;2.13;;;;;;;12.78;100.00;97450.59;4908497;29;20232;-67
2022/10/03 05:37:55;;;;;;;2.00;1.90;;;;;;;12.75;100.00;97450.84;4907707;29;20274;-67
2022/10/03 05:40:24;;;;;;;3.93;2.83;;;;;;;12.77;100.00;97450.72;4908125;29;20287;-67
2022/10/03 05:43:01;;;;;;;2.70;2.50;;;;;;;12.75;100.00;97445.53;4908445;29;20239;-65
2022/10/03 05:45:31;;;;;;;2.87;2.67;;;;;;;12.79;100.00;97451.41;4908235;29;20250;-61
2022/10/03 05:48:12;;;;;;;2.23;2.03;;;;;;;12.85;100.00;97464.16;4908116;29;20240;-61
2022/10/03 05:51:01;;;;;;;2.30;2.10;;;;;;;12.84;100.00;97463.31;4908063;29;20243;-61
2022/10/03 05:53:52;;;;;;;2.33;2.23;;;;;;;12.89;100.00;97463.72;4907595;29;20302;-60
2022/10/03 05:56:25;;;;;;;2.93;2.63;;;;;;;12.90;100.00;97468.06;4907749;29;20212;-62
2022/10/03 05:59:22;;;;;;;2.20;2.10;;;;;;;12.94;100.00;97466.81;4908415;29;20295;-60
2022/10/03 06:02:12;;;;;;;2.30;2.20;;;;;;;12.95;100.00;97472.97;4908526;29;20204;-62
2022/10/03 06:05:10;;;;;;;2.97;2.67;;;;;;;12.98;100.00;97478.84;4908218;29;20633;-61
2022/10/03 06:07:48;;;;;;;2.77;2.40;;;;;;;13.02;100.00;97484.72;4901060;29;20211;-62
2022/10/03 06:10:42;;;;;;;2.87;2.67;;;;;;;13.04;100.00;97484.59;4907784;29;20589;-62
2022/10/03 06:13:18;;;;;;;3.67;2.87;;;;;;;13.03;100.00;97482.91;4899932;29;20247;-63
2022/10/03 06:15:54;;;;;;;3.00;2.80;;;;;;;13.08;100.00;97486.81;4907568;29;20209;-62
2022/10/03 06:19:05;;;;;;;3.03;2.73;;;;;;;13.11;100.00;97477.78;4907216;29;20219;-63
2022/10/03 06:22:06;;;;;;;3.03;2.83;;;;;;;13.10;100.00;97476.94;4908505;29;20201;-63
2022/10/03 06:25:14;;;;;;;3.73;2.93;;;;;;;13.18;100.00;97481.56;4907309;29;20208;-64
2022/10/03 06:28:18;;;;;;;2.40;2.30;;;;;;;13.16;100.00;97481.69;4908177;29;20227;-63
2022/10/03 06:31:03;;;;;;;4.30;2.20;;;;;;;13.21;100.00;97494.56;4915333;29;20271;-64
2022/10/03 06:33:53;;;;;;;3.53;2.60;;;;;;;13.21;100.00;97494.56;4908403;29;20222;-64
2022/10/03 06:36:27;;;;;;;3.10;2.67;;;;;;;13.24;100.00;97499.59;4908248;29;20302;-63
2022/10/03 06:39:45;;;;;;;2.87;2.60;;;;;;;13.28;100.00;97501.00;4907941;29;20326;-63
2022/10/03 06:42:39;;;;;;;2.70;2.50;;;;;;;13.31;100.00;97511.34;4840784;29;20293;-64
2022/10/03 06:45:32;;;;;;;3.67;3.07;;;;;;;13.27;100.00;97512.59;4839947;29;20329;-64
2022/10/03 06:48:16;;;;;;;3.10;2.80;;;;;;;13.22;100.00;97517.47;4901950;29;20254;-65
2022/10/03 06:50:53;;;;;;;3.00;2.80;;;;;;;13.21;100.00;97526.44;4907811;29;20272;-64
2022/10/03 06:53:38;;;;;;;3.47;2.67;;;;;;;13.23;100.00;97525.31;4907320;29;20524;-64
2022/10/03 06:56:49;;;;;;;3.10;2.80;;;;;;;13.13;100.00;97523.63;4906630;29;20296;-64
2022/10/03 06:59:44;;;;;;;3.20;2.90;;;;;;;13.09;100.00;97525.72;4881934;29;20311;-63
2022/10/03 07:02:40;;;;;;;3.57;2.80;;;;;;;13.13;100.00;97524.47;4906599;29;20208;-64
2022/10/03 07:05:41;;;;;;;3.23;2.90;;;;;;;13.12;100.00;97529.91;4906986;29;20304;-64
2022/10/03 07:08:46;;;;;;;3.87;2.93;;;;;;;13.14;100.00;97535.94;4907355;29;20268;-64
2022/10/03 07:11:34;;;;;;;5.60;2.60;;;;;;;13.19;100.00;97528.38;4906989;29;20212;-64
2022/10/03 07:14:23;;;;;;;4.07;2.70;;;;;;;13.17;100.00;97538.31;4905881;29;20710;-65
2022/10/03 07:17:03;;;;;;;3.10;2.80;;;;;;;13.12;100.00;97537.88;4906081;29;20216;-66
2022/10/03 07:19:56;;;;;;;2.90;2.77;;;;;;;13.17;100.00;97548.94;4906576;29;20212;-66
2022/10/03 07:23:12;;;;;;;3.07;2.63;;;;;;;13.18;100.00;97547.97;4906416;29;20192;-65
2022/10/03 07:26:00;;;;;;;4.00;3.13;;;;;;;13.19;100.00;97555.78;4907015;29;20299;-65
2022/10/03 07:28:57;;;;;;;3.20;3.00;;;;;;;13.23;100.00;97551.03;4905906;29;20702;-64
2022/10/03 07:31:34;;;;;;;3.73;2.90;;;;;;;13.23;100.00;97551.88;4906110;29;20578;-66
2022/10/03 07:34:18;;;;;;;3.27;3.03;;;;;;;13.27;100.00;97552.44;4905456;29;20279;-64
2022/10/03 07:40:21;;;;;;;3.83;3.47;;;;;;;13.31;100.00;97553.84;4906119;29;20675;-65
2022/10/03 07:43:32;;;;;;;3.60;3.07;;;;;;;13.36;100.00;97556.91;4906456;29;20268;-65
2022/10/03 07:46:27;;;;;;;3.17;2.80;;;;;;;13.36;100.00;97557.75;4905972;29;20326;-66
2022/10/03 07:49:17;;;;;;;3.50;3.20;;;;;;;13.38;100.00;97561.13;4906599;29;20211;-65
2022/10/03 07:51:57;;;;;;;3.27;2.97;;;;;;;13.45;100.00;97562.25;4905757;29;20260;-65
2022/10/03 07:54:42;;;;;;;5.83;3.20;;;;;;;13.52;100.00;97567.00;4906406;29;20201;-66
2022/10/03 07:57:34;;;;;;;4.27;3.27;;;;;;;13.53;100.00;97566.03;4906500;29;20291;-64
2022/10/03 08:00:28;;;;;;;4.73;2.83;;;;;;;13.62;100.00;97574.00;4906349;29;20208;-66
2022/10/03 08:03:32;;;;;;;5.27;3.30;;;;;;;13.69;100.00;97574.28;4852121;29;20213;-66
2022/10/03 08:06:22;;;;;;;6.00;3.03;;;;;;;13.77;100.00;97566.47;4905563;29;20242;-66
2022/10/03 08:09:33;;;;;;;3.67;3.40;;;;;;;13.89;100.00;97574.16;4905923;29;20267;-64
2022/10/03 08:12:47;;;;;;;5.03;3.80;;;;;;;14.00;100.00;97569.66;4905060;29;20235;-64
2022/10/03 08:15:24;;;;;;;4.23;3.70;;;;;;;14.08;100.00;97577.78;4884027;29;20625;-65
2022/10/03 08:18:10;;;;;;;3.60;3.30;;;;;;;14.13;100.00;97578.19;4912513;29;20284;-66
2022/10/03 08:20:44;;;;;;;6.00;3.43;;;;;;;14.17;100.00;97584.91;4912598;29;20307;-65
2022/10/03 08:23:40;;;;;;;5.23;3.63;;;;;;;14.12;100.00;97588.00;4911923;29;20256;-64
2022/10/03 08:26:16;;;;;;;4.27;3.23;;;;;;;14.20;100.00;97584.63;4912529;29;20232;-66
2022/10/03 08:29:07;;;;;;;3.70;3.30;;;;;;;14.23;100.00;97576.34;4912068;29;20200;-64
2022/10/03 08:32:01;;;;;;;4.20;3.03;;;;;;;14.28;100.00;97582.06;4912831;29;20212;-64
2022/10/03 08:35:05;;;;;;;3.70;2.73;;;;;;;14.38;100.00;97586.41;4911725;29;20291;-65
2022/10/03 08:37:56;;;;;;;3.70;2.73;;;;;;;14.44;100.00;97583.22;4879058;29;20208;-65
2022/10/03 08:40:55;;;;;;;7.03;3.27;;;;;;;14.36;100.00;97585.75;4912829;29;20525;-64
2022/10/03 08:43:52;;;;;;;3.63;3.30;;;;;;;14.50;100.00;97587.09;4897815;29;20212;-64
2022/10/03 08:46:36;;;;;;;3.33;2.70;;;;;;;14.50;100.00;97587.09;4891502;29;20319;-66
2022/10/03 08:49:19;;;;;;;3.20;2.90;;;;;;;14.44;100.00;97585.03;4894266;29;20291;-65
2022/10/03 08:52:09;;;;;;;6.83;3.10;;;;;;;14.56;100.00;97593.69;4893708;29;20291;-64
2022/10/03 08:54:51;;;;;;;4.30;3.10;;;;;;;14.51;100.00;97588.78;4893632;29;20293;-65
2022/10/03 08:57:33;;;;;;;3.17;2.87;;;;;;;14.51;100.00;97585.28;4893092;29;20291;-65
2022/10/03 09:00:13;;;;;;;3.83;3.00;;;;;;;14.52;100.00;97579.00;4901060;29;20197;-67
2022/10/03 09:03:08;;;;;;;3.30;3.00;;;;;;;14.67;100.00;97583.69;4917644;29;20228;-65
2022/10/03 09:06:25;;;;;;;3.37;2.90;;;;;;;14.80;100.00;97578.88;4915191;29;20198;-66
2022/10/03 09:09:11;;;;;;;3.17;2.83;;;;;;;14.98;100.00;97575.44;4900237;29;20215;-64
2022/10/03 09:12:07;;;;;;;4.47;2.97;;;;;;;15.07;100.00;97571.88;4895507;29;20228;-63
2022/10/03 09:15:03;;;;;;;3.60;2.80;;;;;;;15.11;100.00;97570.59;4893275;29;20287;-64
2022/10/03 09:17:59;;;;;;;4.43;3.10;;;;;;;15.22;100.00;97562.41;4892740;29;20240;-63
2022/10/03 09:20:49;;;;;;;4.43;3.23;;;;;;;15.33;100.00;97563.03;4890979;29;20555;-63
2022/10/03 09:23:38;;;;;;;3.33;3.03;;;;;;;15.48;99.26;97560.69;4892956;29;20232;-62
2022/10/03 09:26:32;;;;;;;3.20;2.90;;;;;;;15.65;97.33;97551.91;4893344;29;20208;-65
2022/10/03 09:29:18;;;;;;;5.27;2.43;;;;;;;15.90;97.68;97545.81;4889982;29;20226;-62
2022/10/03 09:32:11;;;;;;;3.50;3.10;;;;;;;16.15;93.74;97546.00;4890630;29;20383;-62
2022/10/03 09:35:06;;;;;;;3.03;2.73;;;;;;;16.52;95.93;97543.88;4860578;29;20241;-62
2022/10/03 09:38:09;;;;;;;7.13;2.88;;;;;;;16.87;92.94;97543.75;4891246;29;20305;-61
2022/10/03 09:41:05;;;;;;;3.83;2.80;;;;;;;17.14;87.15;97540.06;4891177;29;20220;-63
2022/10/03 09:43:49;;;;;;;2.70;2.50;;;;;;;17.44;86.36;97530.59;4891219;29;20209;-63
2022/10/03 09:46:32;;;;;;;2.95;2.65;;;;;;;17.62;83.07;97534.00;4910063;29;20255;-63
2022/10/03 09:49:33;;;;;;;5.18;2.40;;;;;;;17.25;79.88;97529.03;4909932;29;20205;-64
2022/10/03 09:52:17;;;;;;;5.05;2.63;;;;;;;17.21;81.31;97529.53;4908346;29;20637;-63
2022/10/03 09:55:18;;;;;;;2.22;2.10;;;;;;;17.55;82.00;97524.09;4909014;29;20287;-64
2022/10/03 09:57:59;;;;;;;2.92;2.50;;;;;;;17.51;83.63;97531.59;4894024;29;20307;-62
2022/10/03 10:00:27;;;;;;;3.75;2.30;;;;;;;17.42;81.95;97527.25;4907310;29;20291;-61
2022/10/03 10:03:39;;;;;;;3.47;2.00;;;;;;;17.39;89.25;97528.41;4908422;29;20206;-63
2022/10/03 10:06:12;;;;;;;3.70;2.10;;;;;;;17.22;82.50;97521.34;4908515;29;20223;-64
2022/10/03 10:09:05;;;;;;;4.45;2.20;;;;;;;16.96;83.29;97517.09;4909099;29;20303;-64
2022/10/03 10:11:46;;;;;;;2.33;1.73;;;;;;;16.63;79.09;97514.28;4908577;29;20267;-64
2022/10/03 10:14:30;;;;;;;1.80;1.40;;;;;;;16.51;82.30;97510.16;4907922;29;20832;-63
2022/10/03 10:17:18;;;;;;;2.30;1.42;;;;;;;16.48;83.54;97512.31;4908428;29;20196;-64
2022/10/03 10:20:06;;;;;;;1.50;1.38;;;;;;;16.45;86.97;97510.81;4908455;29;20212;-63
2022/10/03 10:23:06;;;;;;;1.83;1.42;;;;;;;16.41;88.88;97510.28;4860597;29;20211;-63
2022/10/03 10:25:58;;;;;;;3.08;1.48;;;;;;;16.40;85.70;97513.94;4907769;29;20212;-63
2022/10/03 10:29:07;;;;;;;1.42;1.33;;;;;;;16.30;82.49;97512.38;4881427;29;20292;-64
2022/10/03 10:32:12;;;;;;;2.05;1.08;;;;;;;16.34;81.73;97514.56;4908333;29;20215;-64
2022/10/03 10:35:14;;;;;;;1.33;0.80;;;;;;;16.39;81.76;97516.78;4908559;29;20212;-64
2022/10/03 10:38:01;;;;;;;1.13;1.13;;;;;;;16.40;82.06;97510.47;4907443;29;20553;-64
2022/10/03 10:40:58;;;;;;;1.30;1.17;;;;;;;16.49;83.72;97517.50;4906689;29;20205;-65
2022/10/03 10:43:50;;;;;;;2.00;1.10;;;;;;;16.57;84.19;97509.56;4907773;29;20204;-63
2022/10/03 10:46:40;;;;;;;1.30;1.20;;;;;;;16.56;81.82;97510.56;4907155;29;20623;-63
2022/10/03 10:49:44;;;;;;;2.17;1.00;;;;;;;16.61;80.17;97504.75;4907220;29;20208;-63
2022/10/03 10:52:50;;;;;;;1.15;0.93;;;;;;;16.67;85.11;97499.59;4907480;29;20208;-65
2022/10/03 10:55:53;;;;;;;0.98;0.70;;;;;;;16.69;81.83;97502.09;4822096;29;20203;-62
2022/10/03 10:58:53;;;;;;;1.02;0.93;;;;;;;16.72;80.08;97501.81;4821261;29;20298;-65
2022/10/03 11:01:48;;;;;;;1.58;0.90;;;;;;;16.64;77.04;97491.06;4876092;29;20218;-63
2022/10/03 11:04:48;;;;;;;1.90;1.17;;;;;;;16.68;77.27;97490.59;4908090;29;20597;-65
2022/10/03 11:07:45;;;;;;;1.33;1.17;;;;;;;16.93;79.65;97494.22;4906329;29;20207;-64
2022/10/03 11:10:36;;;;;;;0.95;0.85;;;;;;;17.30;78.44;97496.47;4907917;29;20286;-63
2022/10/03 11:13:36;;;;;;;1.33;1.13;;;;;;;17.66;79.67;97492.53;4907415;29;20323;-62
2022/10/03 11:16:41;;;;;;;1.10;1.00;;;;;;;17.99;78.36;97485.34;4907430;29;20215;-63
2022/10/03 11:19:40;;;;;;;1.50;1.40;;;;;;;18.14;77.20;97493.53;4884885;29;20291;-64
2022/10/03 11:22:52;;;;;;;1.85;1.27;;;;;;;18.07;75.29;97487.16;4907148;29;20212;-64
2022/10/03 11:25:49;;;;;;;2.53;1.10;;;;;;;17.87;76.28;97487.53;4873037;29;20291;-63
2022/10/03 11:29:05;;;;;;;1.98;1.15;;;;;;;17.62;71.96;97493.03;4907550;29;20287;-64
2022/10/03 11:32:09;;;;;;;2.40;1.50;;;;;;;17.27;75.44;97497.63;4927224;29;20224;-64
2022/10/03 11:35:00;;;;;;;1.60;1.35;;;;;;;16.95;73.60;97486.84;4928478;29;20220;-66
2022/10/03 11:37:38;;;;;;;3.15;1.50;;;;;;;16.98;75.55;97496.38;4927618;29;20196;-64
2022/10/03 11:40:19;;;;;;;1.27;1.00;;;;;;;16.97;77.52;97497.41;4910832;29;20207;-62
2022/10/03 11:42:55;;;;;;;1.52;1.25;;;;;;;16.98;75.75;97491.03;4906222;29;20211;-64
2022/10/03 11:45:26;;;;;;;1.48;0.85;;;;;;;17.07;76.96;97495.41;4906081;29;20328;-66
2022/10/03 11:47:57;;;;;;;1.75;1.00;;;;;;;17.15;76.92;97490.06;4906528;29;20307;-64
2022/10/03 11:50:33;;;;;;;1.30;0.82;;;;;;;17.14;74.41;97485.75;4905170;29;20677;-63
2022/10/03 11:53:17;;;;;;;1.67;1.08;;;;;;;16.97;75.78;97484.84;4907115;29;20227;-65
2022/10/03 11:55:50;;;;;;;2.35;1.30;;;;;;;17.08;75.48;97487.22;4904520;29;20238;-65
2022/10/03 11:58:35;;;;;;;1.73;1.05;;;;;;;17.00;76.05;97486.38;4905694;29;20203;-65
2022/10/03 12:01:18;;;;;;;1.52;1.17;;;;;;;16.83;72.63;97474.78;4905960;29;20207;-65
2022/10/03 12:03:51;;;;;;;1.15;1.00;;;;;;;16.82;73.75;97476.63;4905720;29;20204;-64
2022/10/03 12:09:17;;;;;;;2.22;1.35;;;;;;;16.78;74.25;97482.47;4905721;29;20698;-66
2022/10/03 12:11:52;;;;;;;1.45;1.35;;;;;;;16.89;76.10;97482.16;4905611;29;20299;-63
2022/10/03 12:14:26;;;;;;;1.52;1.27;;;;;;;16.95;74.78;97488.69;4905748;29;20228;-65
2022/10/03 12:17:01;;;;;;;3.92;1.30;;;;;;;16.97;75.55;97490.19;4905173;29;20207;-63
2022/10/03 12:19:31;;;;;;;1.75;1.30;;;;;;;16.91;71.26;97496.19;4906399;29;20607;-65
2022/10/03 12:22:06;;;;;;;2.78;1.30;;;;;;;16.93;72.22;97494.22;4905766;29;20306;-65
2022/10/03 12:24:35;;;;;;;3.30;1.70;;;;;;;16.91;71.36;97499.69;4905512;29;20227;-64
2022/10/03 12:27:07;;;;;;;3.15;1.55;;;;;;;16.85;70.42;97496.84;4906473;29;20298;-64
2022/10/03 12:29:36;;;;;;;2.60;1.35;;;;;;;16.92;72.20;97493.38;4905636;29;20247;-65
2022/10/03 12:32:28;;;;;;;2.30;1.17;;;;;;;16.86;69.19;97494.00;4906780;29;20296;-65
2022/10/03 12:35:03;;;;;;;2.13;1.52;;;;;;;16.87;69.24;97482.31;4902857;29;20320;-63
2022/10/03 12:37:44;;;;;;;1.63;1.10;;;;;;;16.85;68.37;97480.81;4905363;29;20227;-65
2022/10/03 12:40:21;;;;;;;0.90;0.90;;;;;;;16.97;70.16;97471.47;4905642;29;20291;-64
2022/10/03 12:42:58;;;;;;;1.65;1.17;;;;;;;17.02;69.28;97484.38;4906634;29;20255;-63
2022/10/03 12:45:27;;;;;;;3.35;1.13;;;;;;;17.15;70.54;97482.06;4905431;29;20247;-64
2022/10/03 12:48:02;;;;;;;2.97;1.67;;;;;;;17.28;70.67;97475.25;4905988;29;20298;-64
2022/10/03 12:50:38;;;;;;;2.40;1.60;;;;;;;17.24;73.13;97476.59;4906084;29;20203;-65
2022/10/03 12:53:22;;;;;;;2.33;1.73;;;;;;;17.40;73.11;97465.06;4905761;29;20220;-64
2022/10/03 12:56:02;;;;;;;2.25;1.33;;;;;;;17.43;73.91;97475.41;4906732;29;20208;-64
2022/10/03 12:58:33;;;;;;;2.60;1.48;;;;;;;17.42;71.87;97468.44;4905934;29;20591;-64
2022/10/03 13:01:06;;;;;;;1.38;1.10;;;;;;;17.57;72.94;97465.97;4906231;29;20287;-62
2022/10/03 13:03:39;;;;;;;4.20;1.45;;;;;;;17.89;70.08;97456.06;4908208;29;20227;-63